createdAt,value
2022-08-26T00:02:01.533Z,57.65
2022-08-26T00:04:31.506Z,57.67
2022-08-26T00:07:00.360Z,57.84
2022-08-26T00:09:29.117Z,57.98
2022-08-26T00:11:57.578Z,57.80
2022-08-26T00:14:31.033Z,58.14
2022-08-26T00:17:00.194Z,58.02
2022-08-26T00:19:28.804Z,58.09
2022-08-26T00:21:57.383Z,58.12
2022-08-26T00:24:25.993Z,58.02
2022-08-26T00:26:54.445Z,58.26
2022-08-26T00:29:23.059Z,58.53
2022-08-26T00:31:51.837Z,58.92
2022-08-26T00:34:20.516Z,58.60
2022-08-26T00:36:52.053Z,58.95
2022-08-26T00:39:21.187Z,58.94
2022-08-26T00:41:49.969Z,58.85
2022-08-26T00:44:19.297Z,58.94
2022-08-26T00:46:52.872Z,59.18
2022-08-26T00:49:31.009Z,59.14
2022-08-26T00:52:03.889Z,59.44
2022-08-26T00:54:44.645Z,59.33
2022-08-26T00:57:16.760Z,59.71
2022-08-26T00:59:47.664Z,59.47
2022-08-26T01:02:20.967Z,59.63
2022-08-26T01:04:55.639Z,59.79
2022-08-26T01:07:26.179Z,59.94
2022-08-26T01:09:57.546Z,59.83
2022-08-26T01:12:31.778Z,60.18
2022-08-26T01:15:01.580Z,59.68
2022-08-26T01:17:30.259Z,60.33
2022-08-26T01:20:09.969Z,60.57
2022-08-26T01:22:49.817Z,60.48
2022-08-26T01:25:23.472Z,60.25
2022-08-26T01:27:55.041Z,60.68
2022-08-26T01:30:27.763Z,60.80
2022-08-26T01:32:58.075Z,60.64
2022-08-26T01:35:27.545Z,61.22
2022-08-26T01:37:56.837Z,61.13
2022-08-26T01:40:32.101Z,61.11
2022-08-26T01:43:02.857Z,61.42
2022-08-26T01:45:34.273Z,61.23
2022-08-26T01:48:11.030Z,61.21
2022-08-26T01:50:40.119Z,61.60
2022-08-26T01:53:12.081Z,61.58
2022-08-26T01:55:45.748Z,61.14
2022-08-26T01:58:20.517Z,61.17
2022-08-26T02:00:50.423Z,61.60
2022-08-26T02:03:21.792Z,61.47
2022-08-26T02:05:53.908Z,61.47
2022-08-26T02:08:27.853Z,61.61
2022-08-26T02:10:56.610Z,62.00
2022-08-26T02:13:30.767Z,62.00
2022-08-26T02:16:01.598Z,61.67
2022-08-26T02:18:34.493Z,62.12
2022-08-26T02:21:06.615Z,62.33
2022-08-26T02:23:35.572Z,61.95
2022-08-26T02:26:09.461Z,62.32
2022-08-26T02:28:40.288Z,62.19
2022-08-26T02:31:08.906Z,62.66
2022-08-26T02:33:38.581Z,62.40
2022-08-26T02:36:13.487Z,62.32
2022-08-26T02:38:44.465Z,62.35
2022-08-26T02:41:15.091Z,62.85
2022-08-26T02:43:43.881Z,62.68
2022-08-26T02:46:12.608Z,62.90
2022-08-26T02:48:50.633Z,63.00
2022-08-26T02:51:19.068Z,62.55
2022-08-26T02:53:47.532Z,63.14
2022-08-26T02:56:15.988Z,63.39
2022-08-26T02:58:44.568Z,63.71
2022-08-26T03:01:22.759Z,63.13
2022-08-26T03:03:51.713Z,63.37
2022-08-26T03:06:20.810Z,63.81
2022-08-26T03:08:49.565Z,63.44
2022-08-26T03:11:19.095Z,64.14
2022-08-26T03:13:47.686Z,63.56
2022-08-26T03:16:16.902Z,63.86
2022-08-26T03:18:47.015Z,63.74
2022-08-26T03:21:21.148Z,64.03
2022-08-26T03:23:49.709Z,64.18
2022-08-26T03:26:18.905Z,63.93
2022-08-26T03:29:05.943Z,64.26
2022-08-26T03:31:35.532Z,64.58
2022-08-26T03:34:04.105Z,64.76
2022-08-26T03:36:33.164Z,64.77
2022-08-26T03:39:04.413Z,64.97
2022-08-26T03:41:36.075Z,64.56
2022-08-26T03:44:06.366Z,65.18
2022-08-26T03:46:35.464Z,65.20
2022-08-26T03:49:05.445Z,65.28
2022-08-26T03:51:35.844Z,65.23
2022-08-26T03:54:09.131Z,65.41
2022-08-26T03:56:37.964Z,64.70
2022-08-26T03:59:08.555Z,65.39
2022-08-26T04:01:37.305Z,65.07
2022-08-26T04:04:06.955Z,64.97
2022-08-26T04:06:38.305Z,65.46
2022-08-26T04:09:09.385Z,65.05
2022-08-26T04:11:39.682Z,65.69
2022-08-26T04:14:12.893Z,66.00
2022-08-26T04:16:43.284Z,65.89
2022-08-26T04:19:13.852Z,65.76
2022-08-26T04:21:43.148Z,66.14
2022-08-26T04:24:14.612Z,65.94
2022-08-26T04:26:43.993Z,65.83
2022-08-26T04:29:16.724Z,65.94
2022-08-26T04:31:46.416Z,66.41
2022-08-26T04:34:16.998Z,66.20
2022-08-26T04:36:45.706Z,66.72
2022-08-26T04:39:16.355Z,65.91
2022-08-26T04:41:46.114Z,66.35
2022-08-26T04:44:15.930Z,66.31
2022-08-26T04:46:46.051Z,66.00
2022-08-26T04:49:14.542Z,66.49
2022-08-26T04:51:43.920Z,66.70
2022-08-26T04:54:13.644Z,66.29
2022-08-26T04:56:49.105Z,66.56
2022-08-26T04:59:18.206Z,66.63
2022-08-26T05:01:49.463Z,66.65
2022-08-26T05:04:20.157Z,66.56
2022-08-26T05:06:49.426Z,66.20
2022-08-26T05:09:18.681Z,66.52
2022-08-26T05:11:48.520Z,66.55
2022-08-26T05:14:22.768Z,66.77
2022-08-26T05:16:52.018Z,66.62
2022-08-26T05:19:21.087Z,66.60
2022-08-26T05:21:50.215Z,66.74
2022-08-26T05:24:18.809Z,66.71
2022-08-26T05:26:48.127Z,65.07
2022-08-26T05:29:16.937Z,64.07
2022-08-26T05:31:45.490Z,62.86
2022-08-26T05:34:14.221Z,62.93
2022-08-26T05:36:43.014Z,62.77
2022-08-26T05:39:12.022Z,62.24
2022-08-26T05:41:44.860Z,61.74
2022-08-26T05:44:15.733Z,61.67
2022-08-26T05:46:45.644Z,61.08
2022-08-26T05:49:15.387Z,61.28
2022-08-26T05:51:46.024Z,60.97
2022-08-26T05:54:21.993Z,60.26
2022-08-26T05:56:51.790Z,59.96
2022-08-26T05:59:24.192Z,60.14
2022-08-26T06:01:54.417Z,60.16
2022-08-26T06:04:27.076Z,59.84
2022-08-26T06:06:58.543Z,59.12
2022-08-26T06:09:27.159Z,59.36
2022-08-26T06:11:58.272Z,59.20
2022-08-26T06:14:26.734Z,59.19
2022-08-26T06:16:55.190Z,58.88
2022-08-26T06:19:23.836Z,59.06
2022-08-26T06:21:54.926Z,58.70
2022-08-26T06:24:50.985Z,58.54
2022-08-26T06:27:19.946Z,58.32
2022-08-26T06:29:48.712Z,58.10
2022-08-26T06:32:17.272Z,58.13
2022-08-26T06:34:45.767Z,57.78
2022-08-26T06:37:14.655Z,57.60
2022-08-26T06:39:44.140Z,57.40
2022-08-26T06:42:12.945Z,57.11
2022-08-26T06:44:44.739Z,56.41
2022-08-26T06:47:13.582Z,56.25
2022-08-26T06:49:42.429Z,55.71
2022-08-26T06:52:12.753Z,55.67
2022-08-26T06:54:42.674Z,55.60
2022-08-26T06:57:12.713Z,55.52
2022-08-26T06:59:45.739Z,54.80
2022-08-26T07:02:14.610Z,54.41
2022-08-26T07:04:43.866Z,54.41
2022-08-26T07:07:16.368Z,53.88
2022-08-26T07:09:45.399Z,54.25
2022-08-26T07:12:13.824Z,53.59
2022-08-26T07:14:47.557Z,53.44
2022-08-26T07:17:17.273Z,53.11
2022-08-26T07:19:49.022Z,53.05
2022-08-26T07:22:18.256Z,52.29
2022-08-26T07:24:46.718Z,52.21
2022-08-26T07:27:17.162Z,52.04
2022-08-26T07:29:45.868Z,51.27
2022-08-26T07:32:16.558Z,51.22
2022-08-26T07:34:45.626Z,50.93
2022-08-26T07:37:14.744Z,50.98
2022-08-26T07:39:44.630Z,51.13
2022-08-26T07:42:18.476Z,50.67
2022-08-26T07:44:47.636Z,50.55
2022-08-26T07:47:25.780Z,50.43
2022-08-26T07:49:57.229Z,50.07
2022-08-26T07:52:28.149Z,49.92
2022-08-26T07:54:58.302Z,50.03
2022-08-26T07:57:28.323Z,49.41
2022-08-26T07:59:57.719Z,49.22
2022-08-26T08:02:28.213Z,48.95
2022-08-26T08:04:57.774Z,48.69
2022-08-26T08:07:44.222Z,48.44
2022-08-26T08:10:16.894Z,48.34
2022-08-26T08:12:45.419Z,47.86
2022-08-26T08:15:15.337Z,47.50
2022-08-26T08:17:44.178Z,47.42
2022-08-26T08:20:14.433Z,47.12
2022-08-26T08:22:43.608Z,47.21
2022-08-26T08:25:13.339Z,46.54
2022-08-26T08:27:44.497Z,46.36
2022-08-26T08:30:15.521Z,45.96
2022-08-26T08:32:51.406Z,45.85
2022-08-26T08:35:22.239Z,45.50
2022-08-26T08:37:53.711Z,45.58
2022-08-26T08:40:25.669Z,45.46
2022-08-26T08:42:59.364Z,45.22
2022-08-26T08:45:36.566Z,44.97
2022-08-26T08:48:15.932Z,44.59
2022-08-26T08:50:48.823Z,43.74
2022-08-26T08:53:22.602Z,43.47
2022-08-26T08:56:04.263Z,42.84
2022-08-26T08:58:50.867Z,42.40
2022-08-26T09:01:29.942Z,41.96
2022-08-26T09:04:18.129Z,41.60
2022-08-26T09:06:49.601Z,41.49
2022-08-26T09:09:23.718Z,40.88
2022-08-26T09:11:52.868Z,39.88
2022-08-26T09:14:22.210Z,39.75
2022-08-26T09:17:00.629Z,39.50
2022-08-26T09:19:37.573Z,38.93
2022-08-26T09:22:09.407Z,38.48
2022-08-26T09:24:42.134Z,38.12
2022-08-26T09:27:37.771Z,37.24
2022-08-26T09:30:11.462Z,37.04
2022-08-26T09:32:41.647Z,36.84
2022-08-26T09:35:24.360Z,36.76
2022-08-26T09:37:52.999Z,36.45
2022-08-26T09:40:28.579Z,36.56
2022-08-26T09:43:09.921Z,36.49
2022-08-26T09:45:40.796Z,36.31
2022-08-26T09:48:29.722Z,36.12
2022-08-26T09:51:01.322Z,36.05
2022-08-26T09:53:31.901Z,36.20
2022-08-26T09:56:25.172Z,35.90
2022-08-26T09:58:54.637Z,35.70
2022-08-26T10:01:34.325Z,35.54
2022-08-26T10:04:09.970Z,35.68
2022-08-26T10:06:43.427Z,35.57
2022-08-26T10:09:17.185Z,35.56
2022-08-26T10:11:51.703Z,35.48
2022-08-26T10:14:26.239Z,35.89
2022-08-26T10:17:02.813Z,35.86
2022-08-26T10:19:55.917Z,35.52
2022-08-26T10:22:34.906Z,35.70
2022-08-26T10:25:09.844Z,35.87
2022-08-26T10:27:49.756Z,35.85
2022-08-26T10:30:22.260Z,35.91
2022-08-26T10:32:56.554Z,36.17
2022-08-26T10:35:26.588Z,36.06
2022-08-26T10:38:03.482Z,35.80
2022-08-26T10:40:45.361Z,35.46
2022-08-26T10:43:22.023Z,35.14
2022-08-26T10:45:53.142Z,34.86
2022-08-26T10:48:35.617Z,34.53
2022-08-26T10:51:05.824Z,34.61
2022-08-26T10:53:45.833Z,34.43
2022-08-26T10:56:27.995Z,33.86
2022-08-26T10:59:06.764Z,33.48
2022-08-26T11:01:51.056Z,33.33
2022-08-26T11:04:37.178Z,33.15
2022-08-26T11:07:31.765Z,32.49
2022-08-26T11:10:03.507Z,32.29
2022-08-26T11:12:56.347Z,32.03
2022-08-26T11:15:42.441Z,31.98
2022-08-26T11:18:12.788Z,31.99
2022-08-26T11:20:44.347Z,31.51
2022-08-26T11:23:50.424Z,31.30
2022-08-26T11:26:35.485Z,31.27
2022-08-26T11:29:13.508Z,31.16
2022-08-26T11:31:57.032Z,30.40
2022-08-26T11:34:54.822Z,30.05
2022-08-26T11:37:32.279Z,30.00
2022-08-26T11:40:04.283Z,30.31
2022-08-26T11:42:40.382Z,30.41
2022-08-26T11:45:22.541Z,30.42
2022-08-26T11:47:52.366Z,30.04
2022-08-26T11:50:25.518Z,29.65
2022-08-26T11:53:01.012Z,29.50
2022-08-26T11:55:30.858Z,29.48
2022-08-26T11:58:04.656Z,29.42
2022-08-26T12:00:37.972Z,29.19
2022-08-26T12:03:23.001Z,28.84
2022-08-26T12:05:54.002Z,28.63
2022-08-26T12:08:27.943Z,28.42
2022-08-26T12:11:06.442Z,28.61
2022-08-26T12:13:38.496Z,28.37
2022-08-26T12:16:08.513Z,28.37
2022-08-26T12:18:38.681Z,28.35
2022-08-26T12:21:15.991Z,28.50
2022-08-26T12:23:48.603Z,28.97
2022-08-26T12:26:26.752Z,29.11
2022-08-26T12:28:59.190Z,29.49
2022-08-26T12:31:31.490Z,29.50
2022-08-26T12:34:03.639Z,29.54
2022-08-26T12:36:36.823Z,29.28
2022-08-26T12:39:11.015Z,29.53
2022-08-26T12:41:49.900Z,29.57
2022-08-26T12:44:37.768Z,29.52
2022-08-26T12:47:17.016Z,29.40
2022-08-26T12:50:01.936Z,29.34
2022-08-26T12:52:32.697Z,29.04
2022-08-26T12:55:04.884Z,28.83
2022-08-26T12:57:35.824Z,28.85
2022-08-26T13:00:28.283Z,28.66
2022-08-26T13:02:58.259Z,28.89
2022-08-26T13:05:33.522Z,28.91
2022-08-26T13:08:24.307Z,28.72
2022-08-26T13:11:04.157Z,28.71
2022-08-26T13:13:33.296Z,28.81
2022-08-26T13:16:02.607Z,28.49
2022-08-26T13:18:31.236Z,28.55
2022-08-26T13:20:59.791Z,28.53
2022-08-26T13:23:28.819Z,28.46
2022-08-26T13:25:58.271Z,28.42
2022-08-26T13:28:26.977Z,28.54
2022-08-26T13:30:55.679Z,28.50
2022-08-26T13:33:24.190Z,28.27
2022-08-26T13:35:52.740Z,28.39
2022-08-26T13:38:29.015Z,28.39
2022-08-26T13:41:02.989Z,28.27
2022-08-26T13:43:32.039Z,28.35
2022-08-26T13:46:01.406Z,28.48
2022-08-26T13:48:31.099Z,28.44
2022-08-26T13:50:59.577Z,28.65
2022-08-26T13:53:29.916Z,28.89
2022-08-26T13:55:59.715Z,28.99
2022-08-26T13:58:29.161Z,28.86
2022-08-26T14:00:58.616Z,28.85
2022-08-26T14:03:27.531Z,29.07
2022-08-26T14:05:56.180Z,29.19
2022-08-26T14:08:24.765Z,29.57
2022-08-26T14:10:53.374Z,29.41
2022-08-26T14:13:22.203Z,29.35
2022-08-26T14:15:52.675Z,29.27
2022-08-26T14:18:25.737Z,29.48
2022-08-26T14:20:56.804Z,29.36
2022-08-26T14:23:25.709Z,29.59
2022-08-26T14:25:54.813Z,29.48
2022-08-26T14:28:23.427Z,29.45
2022-08-26T14:30:55.842Z,29.36
2022-08-26T14:33:28.186Z,29.45
2022-08-26T14:36:17.355Z,29.43
2022-08-26T14:38:47.050Z,29.49
2022-08-26T14:41:17.089Z,29.21
2022-08-26T14:43:49.056Z,29.00
2022-08-26T14:46:18.301Z,29.30
2022-08-26T14:48:46.991Z,29.73
2022-08-26T14:51:15.562Z,29.34
2022-08-26T14:54:02.908Z,29.42
2022-08-26T14:56:33.005Z,29.57
2022-08-26T14:59:01.600Z,29.51
2022-08-26T15:01:31.670Z,29.64
2022-08-26T15:04:00.915Z,29.58
2022-08-26T15:06:31.369Z,29.69
2022-08-26T15:09:00.079Z,29.80
2022-08-26T15:11:28.963Z,29.64
2022-08-26T15:13:57.572Z,29.34
2022-08-26T15:16:28.576Z,29.52
2022-08-26T15:18:57.809Z,29.53
2022-08-26T15:21:28.040Z,29.53
2022-08-26T15:24:00.454Z,29.64
2022-08-26T15:26:30.628Z,29.65
2022-08-26T15:29:03.085Z,29.74
2022-08-26T15:31:35.573Z,29.87
2022-08-26T15:34:07.686Z,30.06
2022-08-26T15:36:37.382Z,29.99
2022-08-26T15:39:07.674Z,30.69
2022-08-26T15:41:36.969Z,30.13
2022-08-26T15:44:07.159Z,29.94
2022-08-26T15:46:36.526Z,29.82
2022-08-26T15:49:08.059Z,30.53
2022-08-26T15:51:46.270Z,30.12
2022-08-26T15:54:17.153Z,30.12
2022-08-26T15:56:48.625Z,30.32
2022-08-26T15:59:18.722Z,30.35
2022-08-26T16:01:47.829Z,30.41
2022-08-26T16:04:17.122Z,30.48
2022-08-26T16:06:49.595Z,30.47
2022-08-26T16:09:18.383Z,30.52
2022-08-26T16:11:48.214Z,30.24
2022-08-26T16:14:16.837Z,30.51
2022-08-26T16:16:46.545Z,30.48
2022-08-26T16:19:15.283Z,30.64
2022-08-26T16:21:44.487Z,30.64
2022-08-26T16:24:13.515Z,30.85
2022-08-26T16:26:44.846Z,30.94
2022-08-26T16:29:15.145Z,31.05
2022-08-26T16:31:43.869Z,31.53
2022-08-26T16:34:12.514Z,31.39
2022-08-26T16:36:41.485Z,31.45
2022-08-26T16:39:10.450Z,31.90
2022-08-26T16:41:39.147Z,31.59
2022-08-26T16:44:08.199Z,32.10
2022-08-26T16:46:39.249Z,32.31
2022-08-26T16:49:07.957Z,32.20
2022-08-26T16:51:38.025Z,32.24
2022-08-26T16:54:08.216Z,32.30
2022-08-26T16:56:37.533Z,32.43
2022-08-26T16:59:10.146Z,32.90
2022-08-26T17:01:38.833Z,33.08
2022-08-26T17:04:07.792Z,33.25
2022-08-26T17:06:37.435Z,33.49
2022-08-26T17:09:06.067Z,33.68
2022-08-26T17:11:35.167Z,33.78
2022-08-26T17:14:03.850Z,33.91
2022-08-26T17:16:32.983Z,33.95
2022-08-26T17:19:02.270Z,34.22
2022-08-26T17:21:33.406Z,34.18
2022-08-26T17:24:02.707Z,34.68
2022-08-26T17:26:31.472Z,34.66
2022-08-26T17:29:00.154Z,34.96
2022-08-26T17:31:28.775Z,34.52
2022-08-26T17:33:57.378Z,35.01
2022-08-26T17:36:28.139Z,35.31
2022-08-26T17:38:58.267Z,35.00
2022-08-26T17:41:27.606Z,35.44
2022-08-26T17:43:56.898Z,35.30
2022-08-26T17:46:25.890Z,35.67
2022-08-26T17:48:54.623Z,35.86
2022-08-26T17:51:24.131Z,35.92
2022-08-26T17:53:53.127Z,35.73
2022-08-26T17:56:25.097Z,35.94
2022-08-26T17:58:57.196Z,36.32
2022-08-26T18:01:31.327Z,36.44
2022-08-26T18:04:01.028Z,36.46
2022-08-26T18:06:30.381Z,36.85
2022-08-26T18:08:59.601Z,37.48
2022-08-26T18:11:29.065Z,37.58
2022-08-26T18:13:57.667Z,37.57
2022-08-26T18:16:27.531Z,38.39
2022-08-26T18:18:56.064Z,38.21
2022-08-26T18:21:27.005Z,38.51
2022-08-26T18:23:56.346Z,38.51
2022-08-26T18:26:28.060Z,38.75
2022-08-26T18:28:57.057Z,39.57
2022-08-26T18:31:26.562Z,39.30
2022-08-26T18:33:55.287Z,39.68
2022-08-26T18:36:25.907Z,40.23
2022-08-26T18:38:55.288Z,40.75
2022-08-26T18:41:27.206Z,40.92
2022-08-26T18:43:56.864Z,41.29
2022-08-26T18:46:27.493Z,41.06
2022-08-26T18:48:57.047Z,41.75
2022-08-26T18:51:29.209Z,41.74
2022-08-26T18:53:59.089Z,41.58
2022-08-26T18:56:28.596Z,41.99
2022-08-26T18:58:58.454Z,42.38
2022-08-26T19:01:28.789Z,42.49
2022-08-26T19:03:59.521Z,42.75
2022-08-26T19:06:32.525Z,42.49
2022-08-26T19:09:02.181Z,43.19
2022-08-26T19:11:31.529Z,43.10
2022-08-26T19:14:01.811Z,43.52
2022-08-26T19:16:31.050Z,43.51
2022-08-26T19:19:00.804Z,43.54
2022-08-26T19:21:32.668Z,43.63
2022-08-26T19:24:04.231Z,44.27
2022-08-26T19:26:33.010Z,44.26
2022-08-26T19:29:02.064Z,44.36
2022-08-26T19:31:30.820Z,45.06
2022-08-26T19:33:59.633Z,44.89
2022-08-26T19:36:28.670Z,45.15
2022-08-26T19:38:57.813Z,45.51
2022-08-26T19:41:36.998Z,45.43
2022-08-26T19:44:12.601Z,45.81
2022-08-26T19:46:41.806Z,45.95
2022-08-26T19:49:10.323Z,46.44
2022-08-26T19:51:38.748Z,46.67
2022-08-26T19:54:07.368Z,46.62
2022-08-26T19:56:36.131Z,46.62
2022-08-26T19:59:05.204Z,47.07
2022-08-26T20:01:33.788Z,46.99
2022-08-26T20:04:02.447Z,47.16
2022-08-26T20:06:33.379Z,47.55
2022-08-26T20:09:01.844Z,47.41
2022-08-26T20:11:30.605Z,47.56
2022-08-26T20:13:59.189Z,47.72
2022-08-26T20:16:27.706Z,47.66
2022-08-26T20:19:14.662Z,47.76
2022-08-26T20:21:43.641Z,47.64
2022-08-26T20:24:16.983Z,47.88
2022-08-26T20:26:46.733Z,48.17
2022-08-26T20:29:17.275Z,48.19
2022-08-26T20:31:46.859Z,48.81
2022-08-26T20:34:17.919Z,48.59
2022-08-26T20:36:49.036Z,48.92
2022-08-26T20:39:20.417Z,48.77
2022-08-26T20:41:50.146Z,48.75
2022-08-26T20:44:19.192Z,49.64
2022-08-26T20:46:48.282Z,49.27
2022-08-26T20:49:18.260Z,49.55
2022-08-26T20:51:51.205Z,49.39
2022-08-26T20:54:25.000Z,49.60
2022-08-26T20:56:58.093Z,49.53
2022-08-26T20:59:26.840Z,49.70
2022-08-26T21:01:55.700Z,50.13
2022-08-26T21:04:26.940Z,50.14
2022-08-26T21:06:55.867Z,50.29
2022-08-26T21:09:29.003Z,50.27
2022-08-26T21:11:59.513Z,50.45
2022-08-26T21:14:31.670Z,50.35
2022-08-26T21:17:00.785Z,50.60
2022-08-26T21:19:29.790Z,50.68
2022-08-26T21:21:58.838Z,51.34
2022-08-26T21:24:27.603Z,50.87
2022-08-26T21:26:56.338Z,51.19
2022-08-26T21:29:28.153Z,51.22
2022-08-26T21:31:57.298Z,51.69
2022-08-26T21:34:26.341Z,51.75
2022-08-26T21:36:55.180Z,51.94
2022-08-26T21:39:23.980Z,51.57
2022-08-26T21:41:52.709Z,51.91
2022-08-26T21:44:21.600Z,52.03
2022-08-26T21:46:50.419Z,52.29
2022-08-26T21:49:19.069Z,52.63
2022-08-26T21:54:56.967Z,52.56
2022-08-26T21:57:25.583Z,52.81
2022-08-26T21:59:54.730Z,52.93
2022-08-26T22:02:24.010Z,52.91
2022-08-26T22:04:52.601Z,52.71
2022-08-26T22:07:21.143Z,53.01
2022-08-26T22:09:50.903Z,52.64
2022-08-26T22:12:19.473Z,52.90
2022-08-26T22:14:48.852Z,53.28
2022-08-26T22:17:17.471Z,53.03
2022-08-26T22:19:46.806Z,53.15
2022-08-26T22:22:15.789Z,53.21
2022-08-26T22:24:44.819Z,53.03
2022-08-26T22:27:14.065Z,53.09
2022-08-26T22:29:42.951Z,52.90
2022-08-26T22:32:11.524Z,52.96
2022-08-26T22:34:41.627Z,52.93
2022-08-26T22:37:10.353Z,52.58
2022-08-26T22:39:39.202Z,52.82
2022-08-26T22:42:07.832Z,53.02
2022-08-26T22:44:36.981Z,53.09
2022-08-26T22:47:06.135Z,53.00
2022-08-26T22:49:34.627Z,53.19
2022-08-26T22:52:04.070Z,53.05
2022-08-26T22:54:32.547Z,53.12
2022-08-26T22:57:01.352Z,53.12
2022-08-26T22:59:29.867Z,53.26
2022-08-26T23:01:58.552Z,53.38
2022-08-26T23:04:27.052Z,53.08
2022-08-26T23:06:55.558Z,53.59
2022-08-26T23:09:24.051Z,53.54
2022-08-26T23:11:55.399Z,53.66
2022-08-26T23:14:24.700Z,53.58
2022-08-26T23:16:53.636Z,53.68
2022-08-26T23:19:23.102Z,53.53
2022-08-26T23:21:51.831Z,53.61
2022-08-26T23:24:20.587Z,53.88
2022-08-26T23:26:49.200Z,54.01
2022-08-26T23:29:17.891Z,53.99
2022-08-26T23:31:46.455Z,53.98
2022-08-26T23:34:33.852Z,53.94
2022-08-26T23:37:04.525Z,54.07
2022-08-26T23:39:36.484Z,54.05
2022-08-26T23:42:07.084Z,54.46
2022-08-26T23:44:35.768Z,54.40
2022-08-26T23:47:04.788Z,54.66
2022-08-26T23:49:34.702Z,54.28
2022-08-26T23:52:24.158Z,54.66
2022-08-26T23:54:52.707Z,54.34
2022-08-26T23:57:23.131Z,54.60
2022-08-26T23:59:52.674Z,54.96
